RYR8870 LIRP-GMMX
Flight info
| Callsign | RYR8870 |
|---|---|
| Flight time | N/A |
| Altitude | 33000 |
| Route | DOCME DCT SUPUX DCT ETOIL/N0454F350 DCT REQIN UG26 ZEM/N0455F340 UG26 CHE UA411 FES/N0455F350 UG850 OBOGA |
| Aircraft | B38M/M-SDE1FGHILORVWXY/HB1 |
Departure
| Time | 2026-04-28 21:07 |
|---|---|
| Airport | Pisa International Airport (LIRP) |
Arrival
| Time | N/A |
|---|---|
| Airport | Marrakesh Menara Airport (GMMX) |
| Time | Latitude | Longitude | Altitude | Speed | Heading |
|---|---|---|---|---|---|
| 2026-04-28 20:23 | 43.69766 | 10.39862 | 14 ft | 0 kts | 9° |
| 2026-04-28 20:58 | 43.69765 | 10.39862 | 14 ft | 2 kts | 9° |
| 2026-04-28 20:58 | 43.69741 | 10.39855 | 14 ft | 4 kts | 19° |
| 2026-04-28 20:58 | 43.69717 | 10.39839 | 14 ft | 4 kts | 36° |
| 2026-04-28 20:58 | 43.69700 | 10.39814 | 14 ft | 4 kts | 70° |
| 2026-04-28 20:59 | 43.69697 | 10.39797 | 14 ft | 1 kts | 82° |
| 2026-04-28 20:59 | 43.69697 | 10.39796 | 14 ft | 0 kts | 82° |
| 2026-04-28 21:02 | 43.69698 | 10.39805 | 14 ft | 2 kts | 82° |
| 2026-04-28 21:02 | 43.69700 | 10.39832 | 15 ft | 4 kts | 85° |
| 2026-04-28 21:03 | 43.69699 | 10.39876 | 14 ft | 6 kts | 96° |
| 2026-04-28 21:03 | 43.69692 | 10.39953 | 14 ft | 10 kts | 97° |
| 2026-04-28 21:03 | 43.69666 | 10.40043 | 14 ft | 11 kts | 146° |
| 2026-04-28 21:03 | 43.69588 | 10.40067 | 14 ft | 12 kts | 171° |
| 2026-04-28 21:04 | 43.69498 | 10.40084 | 13 ft | 14 kts | 174° |
| 2026-04-28 21:04 | 43.69397 | 10.40108 | 13 ft | 15 kts | 153° |
| 2026-04-28 21:04 | 43.69330 | 10.40207 | 13 ft | 0 kts | 127° |
| 2026-04-28 21:05 | 43.69326 | 10.40214 | 13 ft | 3 kts | 127° |
| 2026-04-28 21:05 | 43.69290 | 10.40279 | 12 ft | 15 kts | 127° |
| 2026-04-28 21:06 | 43.69177 | 10.40249 | 11 ft | 24 kts | 216° |
| 2026-04-28 21:06 | 43.69001 | 10.40070 | 11 ft | 48 kts | 217° |
| 2026-04-28 21:06 | 43.68523 | 10.39577 | 11 ft | 123 kts | 216° |
| 2026-04-28 21:06 | 43.67655 | 10.38694 | 67 ft | 181 kts | 215° |
| 2026-04-28 21:07 | 43.66547 | 10.37574 | 580 ft | 213 kts | 216° |
| 2026-04-28 21:07 | 43.65341 | 10.36326 | 1725 ft | 208 kts | 217° |
| 2026-04-28 21:07 | 43.64177 | 10.35090 | 2789 ft | 215 kts | 221° |
| 2026-04-28 21:07 | 43.63349 | 10.33362 | 3237 ft | 220 kts | 253° |
| 2026-04-28 21:08 | 43.63350 | 10.31277 | 3401 ft | 221 kts | 287° |
| 2026-04-28 21:08 | 43.64104 | 10.29453 | 3533 ft | 225 kts | 305° |
| 2026-04-28 21:08 | 43.65044 | 10.27706 | 3719 ft | 226 kts | 305° |
| 2026-04-28 21:08 | 43.65991 | 10.25943 | 4074 ft | 229 kts | 305° |
| 2026-04-28 21:09 | 43.67095 | 10.24401 | 5000 ft | 230 kts | 329° |
| 2026-04-28 21:09 | 43.68635 | 10.23795 | 5832 ft | 235 kts | 1° |
| 2026-04-28 21:09 | 43.70214 | 10.24345 | 6653 ft | 237 kts | 31° |
| 2026-04-28 21:09 | 43.71572 | 10.25645 | 7451 ft | 240 kts | 38° |
| 2026-04-28 21:10 | 43.72886 | 10.27058 | 8157 ft | 248 kts | 49° |
| 2026-04-28 21:10 | 43.73746 | 10.29197 | 8633 ft | 262 kts | 80° |
| 2026-04-28 21:10 | 43.73692 | 10.31626 | 9512 ft | 256 kts | 106° |
| 2026-04-28 21:10 | 43.73224 | 10.33992 | 10297 ft | 262 kts | 107° |
| 2026-04-28 21:11 | 43.72732 | 10.36455 | 11006 ft | 267 kts | 107° |
| 2026-04-28 21:11 | 43.72223 | 10.38955 | 11723 ft | 273 kts | 107° |
| 2026-04-28 21:11 | 43.71690 | 10.41511 | 12424 ft | 278 kts | 110° |
| 2026-04-28 21:11 | 43.70988 | 10.44033 | 13121 ft | 283 kts | 113° |
| 2026-04-28 21:12 | 43.70252 | 10.46591 | 13810 ft | 289 kts | 112° |
| 2026-04-28 21:12 | 43.69294 | 10.49032 | 14402 ft | 291 kts | 133° |
| 2026-04-28 21:12 | 43.67704 | 10.50719 | 14994 ft | 290 kts | 159° |
| 2026-04-28 21:12 | 43.65727 | 10.51355 | 15370 ft | 299 kts | 182° |
| 2026-04-28 21:13 | 43.63650 | 10.50821 | 15599 ft | 312 kts | 205° |
| 2026-04-28 21:13 | 43.61701 | 10.49338 | 15825 ft | 329 kts | 212° |
| 2026-04-28 21:13 | 43.59691 | 10.47715 | 16019 ft | 347 kts | 212° |
| 2026-04-28 21:13 | 43.57545 | 10.46046 | 16355 ft | 359 kts | 211° |
| 2026-04-28 21:14 | 43.55377 | 10.44326 | 17053 ft | 360 kts | 212° |
| 2026-04-28 21:14 | 43.53203 | 10.42569 | 17646 ft | 364 kts | 212° |
| 2026-04-28 21:14 | 43.51013 | 10.40782 | 18270 ft | 367 kts | 213° |
| 2026-04-28 21:14 | 43.48804 | 10.38970 | 18807 ft | 371 kts | 213° |
| 2026-04-28 21:15 | 43.46585 | 10.37147 | 19344 ft | 373 kts | 213° |
| 2026-04-28 21:15 | 43.44350 | 10.35309 | 19879 ft | 375 kts | 213° |
| 2026-04-28 21:15 | 43.42104 | 10.33464 | 20405 ft | 378 kts | 213° |
| 2026-04-28 21:15 | 43.39833 | 10.31598 | 20927 ft | 380 kts | 213° |
| 2026-04-28 21:16 | 43.37550 | 10.29723 | 21438 ft | 383 kts | 213° |
| 2026-04-28 21:16 | 43.35252 | 10.27837 | 21943 ft | 386 kts | 213° |
| 2026-04-28 21:16 | 43.32940 | 10.25944 | 22405 ft | 389 kts | 213° |
| 2026-04-28 21:16 | 43.30605 | 10.24031 | 22910 ft | 392 kts | 213° |
| 2026-04-28 21:17 | 43.28254 | 10.22107 | 23404 ft | 394 kts | 213° |
| 2026-04-28 21:17 | 43.25890 | 10.20160 | 23829 ft | 397 kts | 214° |
| 2026-04-28 21:17 | 43.23550 | 10.18139 | 24258 ft | 398 kts | 214° |
| 2026-04-28 21:17 | 43.21288 | 10.16235 | 24655 ft | 400 kts | 213° |
| 2026-04-28 21:18 | 43.18980 | 10.14318 | 25010 ft | 403 kts | 213° |
| 2026-04-28 21:18 | 43.16567 | 10.12349 | 25369 ft | 405 kts | 213° |
| 2026-04-28 21:18 | 43.14134 | 10.10358 | 25701 ft | 409 kts | 213° |
| 2026-04-28 21:18 | 43.11680 | 10.08355 | 26068 ft | 411 kts | 213° |
| 2026-04-28 21:19 | 43.09212 | 10.06348 | 26427 ft | 413 kts | 213° |
| 2026-04-28 21:19 | 43.06732 | 10.04334 | 26773 ft | 416 kts | 212° |
| 2026-04-28 21:19 | 43.04241 | 10.02312 | 27125 ft | 418 kts | 212° |
| 2026-04-28 21:19 | 43.01729 | 10.00278 | 27463 ft | 420 kts | 212° |
| 2026-04-28 21:20 | 42.99235 | 9.98258 | 27796 ft | 423 kts | 212° |
| 2026-04-28 21:20 | 42.96689 | 9.96198 | 28099 ft | 426 kts | 212° |
| 2026-04-28 21:20 | 42.94137 | 9.94136 | 28412 ft | 428 kts | 212° |
| 2026-04-28 21:20 | 42.91561 | 9.92056 | 28737 ft | 430 kts | 212° |
| 2026-04-28 21:21 | 42.88981 | 9.89975 | 29060 ft | 432 kts | 212° |
| 2026-04-28 21:21 | 42.86383 | 9.87881 | 29374 ft | 434 kts | 212° |
| 2026-04-28 21:21 | 42.83773 | 9.85781 | 29682 ft | 437 kts | 212° |
| 2026-04-28 21:21 | 42.81152 | 9.83673 | 29983 ft | 439 kts | 212° |
| 2026-04-28 21:22 | 42.78515 | 9.81555 | 30239 ft | 441 kts | 212° |
| 2026-04-28 21:22 | 42.75876 | 9.79437 | 30503 ft | 442 kts | 212° |
| 2026-04-28 21:22 | 42.73213 | 9.77303 | 30756 ft | 444 kts | 212° |
| 2026-04-28 21:22 | 42.71447 | 9.75887 | 30916 ft | 445 kts | 212° |
| 2026-04-28 21:23 | 42.67872 | 9.73026 | 31258 ft | 447 kts | 212° |
| 2026-04-28 21:23 | 42.65181 | 9.70876 | 31532 ft | 448 kts | 212° |
| 2026-04-28 21:23 | 42.62495 | 9.68731 | 31871 ft | 448 kts | 212° |
| 2026-04-28 21:23 | 42.59846 | 9.66618 | 32201 ft | 447 kts | 212° |
| 2026-04-28 21:24 | 42.57169 | 9.64485 | 32539 ft | 446 kts | 212° |
| 2026-04-28 21:24 | 42.54495 | 9.62356 | 32861 ft | 445 kts | 212° |
| 2026-04-28 21:24 | 42.51823 | 9.60232 | 33197 ft | 445 kts | 211° |
| 2026-04-28 21:24 | 42.49123 | 9.58165 | 33509 ft | 444 kts | 211° |
| 2026-04-28 21:25 | 42.47399 | 9.56832 | 33713 ft | 444 kts | 212° |
| 2026-04-28 21:25 | 42.44181 | 9.54312 | 34083 ft | 443 kts | 212° |
| 2026-04-28 21:25 | 42.41535 | 9.52219 | 34349 ft | 442 kts | 212° |
| 2026-04-28 21:25 | 42.38903 | 9.50130 | 34602 ft | 442 kts | 212° |
| 2026-04-28 21:26 | 42.36264 | 9.48039 | 34854 ft | 441 kts | 212° |
| 2026-04-28 21:26 | 42.34506 | 9.46646 | 35013 ft | 441 kts | 212° |
| 2026-04-28 21:26 | 42.31859 | 9.44553 | 35284 ft | 440 kts | 212° |
| 2026-04-28 21:26 | 42.29219 | 9.42463 | 35554 ft | 439 kts | 212° |
| 2026-04-28 21:27 | 42.25729 | 9.39708 | 35863 ft | 438 kts | 212° |
| 2026-04-28 21:27 | 42.23159 | 9.37682 | 36069 ft | 438 kts | 212° |
| 2026-04-28 21:27 | 42.21319 | 9.36230 | 36200 ft | 437 kts | 213° |
| 2026-04-28 21:27 | 42.18696 | 9.34151 | 36383 ft | 438 kts | 212° |
| 2026-04-28 21:28 | 42.16061 | 9.32090 | 36569 ft | 438 kts | 212° |
| 2026-04-28 21:28 | 42.13439 | 9.30009 | 36772 ft | 437 kts | 213° |
| 2026-04-28 21:28 | 42.10822 | 9.27916 | 36946 ft | 437 kts | 212° |
| 2026-04-28 21:28 | 42.08198 | 9.25856 | 37030 ft | 437 kts | 212° |
| 2026-04-28 21:29 | 42.02981 | 9.21785 | 37044 ft | 436 kts | 212° |
| 2026-04-28 21:29 | 41.97737 | 9.17670 | 37030 ft | 436 kts | 212° |
| 2026-04-28 21:30 | 41.92486 | 9.13585 | 37042 ft | 436 kts | 212° |
| 2026-04-28 21:30 | 41.87233 | 9.09501 | 37015 ft | 436 kts | 212° |
| 2026-04-28 21:31 | 41.81973 | 9.05443 | 37018 ft | 436 kts | 211° |
| 2026-04-28 21:31 | 41.76731 | 9.01370 | 37024 ft | 435 kts | 211° |
| 2026-04-28 21:32 | 41.71475 | 8.97307 | 37026 ft | 435 kts | 211° |
| 2026-04-28 21:32 | 41.66225 | 8.93258 | 37020 ft | 435 kts | 211° |
| 2026-04-28 21:33 | 41.60998 | 8.89260 | 37022 ft | 435 kts | 211° |
| 2026-04-28 21:33 | 41.55760 | 8.85215 | 37011 ft | 434 kts | 211° |
| 2026-04-28 21:34 | 41.50509 | 8.81188 | 37013 ft | 434 kts | 211° |
| 2026-04-28 21:34 | 41.45266 | 8.77175 | 37005 ft | 434 kts | 211° |
| 2026-04-28 21:35 | 41.40025 | 8.73190 | 36996 ft | 432 kts | 211° |
| 2026-04-28 21:35 | 41.34834 | 8.69243 | 37000 ft | 430 kts | 211° |
| 2026-04-28 21:36 | 41.29635 | 8.65280 | 37006 ft | 431 kts | 210° |
| 2026-04-28 21:36 | 41.24427 | 8.61321 | 36995 ft | 430 kts | 211° |
| 2026-04-28 21:37 | 41.19211 | 8.57352 | 36997 ft | 433 kts | 210° |
| 2026-04-28 21:37 | 41.13976 | 8.53390 | 37000 ft | 433 kts | 210° |
| 2026-04-28 21:38 | 41.08753 | 8.49445 | 36998 ft | 433 kts | 210° |
| 2026-04-28 21:38 | 41.03518 | 8.45499 | 36988 ft | 433 kts | 210° |
| 2026-04-28 21:39 | 40.98297 | 8.41571 | 36999 ft | 433 kts | 210° |
| 2026-04-28 21:39 | 40.93039 | 8.37621 | 37001 ft | 433 kts | 210° |
| 2026-04-28 21:40 | 40.87820 | 8.33709 | 37005 ft | 433 kts | 210° |
| 2026-04-28 21:40 | 40.82582 | 8.29789 | 36993 ft | 433 kts | 210° |
| 2026-04-28 21:41 | 40.77302 | 8.25845 | 36998 ft | 435 kts | 210° |
| 2026-04-28 21:41 | 40.72046 | 8.21926 | 36999 ft | 435 kts | 210° |
| 2026-04-28 21:42 | 40.66784 | 8.18008 | 36992 ft | 435 kts | 210° |
| 2026-04-28 21:42 | 40.61528 | 8.14102 | 36992 ft | 435 kts | 210° |
| 2026-04-28 21:43 | 40.56253 | 8.10189 | 36996 ft | 435 kts | 210° |
| 2026-04-28 21:43 | 40.51006 | 8.06304 | 36993 ft | 435 kts | 210° |
| 2026-04-28 21:44 | 40.45809 | 8.02462 | 36993 ft | 435 kts | 210° |
| 2026-04-28 21:44 | 40.40926 | 7.97974 | 36995 ft | 430 kts | 227° |
| 2026-04-28 21:45 | 40.36565 | 7.92547 | 36982 ft | 433 kts | 223° |
| 2026-04-28 21:45 | 40.32138 | 7.87164 | 36991 ft | 434 kts | 223° |
| 2026-04-28 21:46 | 40.27711 | 7.81786 | 36990 ft | 433 kts | 223° |
| 2026-04-28 21:46 | 40.23282 | 7.76416 | 36990 ft | 433 kts | 223° |
| 2026-04-28 21:47 | 40.18887 | 7.71097 | 36982 ft | 433 kts | 223° |
| 2026-04-28 21:47 | 40.14461 | 7.65750 | 36986 ft | 433 kts | 223° |
| 2026-04-28 21:48 | 40.10029 | 7.60406 | 36984 ft | 433 kts | 223° |
| 2026-04-28 21:48 | 40.05597 | 7.55071 | 36986 ft | 433 kts | 223° |
| 2026-04-28 21:49 | 40.01191 | 7.49779 | 36980 ft | 433 kts | 223° |
| 2026-04-28 21:49 | 39.96762 | 7.44467 | 36971 ft | 432 kts | 223° |
| 2026-04-28 21:50 | 39.92335 | 7.39168 | 36982 ft | 432 kts | 223° |
| 2026-04-28 21:50 | 39.87907 | 7.33878 | 36977 ft | 432 kts | 223° |
| 2026-04-28 21:51 | 39.83476 | 7.28594 | 36982 ft | 432 kts | 223° |
| 2026-04-28 21:51 | 39.79054 | 7.23329 | 36971 ft | 431 kts | 223° |
| 2026-04-28 21:52 | 39.74637 | 7.18079 | 36981 ft | 430 kts | 223° |
| 2026-04-28 21:52 | 39.70345 | 7.12681 | 36979 ft | 430 kts | 225° |
| 2026-04-28 21:53 | 39.66081 | 7.07284 | 36978 ft | 430 kts | 225° |
| 2026-04-28 21:53 | 39.61788 | 7.01868 | 36973 ft | 430 kts | 225° |
| 2026-04-28 21:54 | 39.57504 | 6.96473 | 36977 ft | 429 kts | 225° |
| 2026-04-28 21:54 | 39.53232 | 6.91105 | 36980 ft | 428 kts | 225° |
| 2026-04-28 21:55 | 39.48979 | 6.85769 | 36971 ft | 428 kts | 225° |
| 2026-04-28 21:55 | 39.44689 | 6.80396 | 36969 ft | 428 kts | 225° |
| 2026-04-28 21:56 | 39.40434 | 6.75077 | 36968 ft | 427 kts | 225° |
| 2026-04-28 21:56 | 39.36157 | 6.69740 | 36964 ft | 426 kts | 225° |
| 2026-04-28 21:57 | 39.31903 | 6.64441 | 36961 ft | 424 kts | 225° |
| 2026-04-28 21:57 | 39.27651 | 6.59155 | 36961 ft | 425 kts | 225° |
| 2026-04-28 21:58 | 39.23378 | 6.53851 | 36969 ft | 425 kts | 225° |
| 2026-04-28 21:58 | 39.19127 | 6.48584 | 36956 ft | 425 kts | 225° |
| 2026-04-28 21:59 | 39.14861 | 6.43308 | 36970 ft | 423 kts | 226° |
| 2026-04-28 22:00 | 39.08526 | 6.35490 | 36962 ft | 422 kts | 225° |
| 2026-04-28 22:00 | 39.04286 | 6.30268 | 36944 ft | 421 kts | 226° |
| 2026-04-28 22:01 | 39.00055 | 6.25044 | 36954 ft | 421 kts | 226° |
| 2026-04-28 22:01 | 38.95879 | 6.19768 | 36949 ft | 421 kts | 226° |
| 2026-04-28 22:02 | 38.91711 | 6.14519 | 36945 ft | 420 kts | 226° |
| 2026-04-28 22:02 | 38.87532 | 6.09268 | 36945 ft | 420 kts | 226° |
| 2026-04-28 22:03 | 38.83353 | 6.04025 | 36938 ft | 420 kts | 226° |
| 2026-04-28 22:03 | 38.79175 | 5.98793 | 36931 ft | 420 kts | 226° |
| 2026-04-28 22:04 | 38.74995 | 5.93568 | 36930 ft | 420 kts | 226° |
| 2026-04-28 22:04 | 38.70826 | 5.88365 | 36935 ft | 420 kts | 226° |
| 2026-04-28 22:05 | 38.66642 | 5.83153 | 36923 ft | 420 kts | 226° |
| 2026-04-28 22:05 | 38.62448 | 5.77936 | 36925 ft | 420 kts | 226° |
| 2026-04-28 22:06 | 38.58253 | 5.72728 | 36919 ft | 420 kts | 226° |
| 2026-04-28 22:06 | 38.54057 | 5.67528 | 36908 ft | 420 kts | 226° |
| 2026-04-28 22:07 | 38.49857 | 5.62331 | 36915 ft | 420 kts | 226° |
| 2026-04-28 22:07 | 38.45666 | 5.57154 | 36912 ft | 419 kts | 226° |
| 2026-04-28 22:08 | 38.41476 | 5.51988 | 36914 ft | 419 kts | 226° |
| 2026-04-28 22:08 | 38.37291 | 5.46836 | 36914 ft | 419 kts | 225° |
| 2026-04-28 22:09 | 38.33080 | 5.41661 | 36906 ft | 419 kts | 225° |
| 2026-04-28 22:09 | 38.28886 | 5.36516 | 36907 ft | 419 kts | 225° |
| 2026-04-28 22:10 | 38.24689 | 5.31376 | 36910 ft | 419 kts | 225° |
| 2026-04-28 22:10 | 38.20489 | 5.26240 | 36904 ft | 419 kts | 225° |
| 2026-04-28 22:11 | 38.16297 | 5.21123 | 36883 ft | 419 kts | 225° |
| 2026-04-28 22:11 | 38.12093 | 5.16001 | 36898 ft | 419 kts | 225° |
| 2026-04-28 22:12 | 38.07876 | 5.10871 | 36885 ft | 419 kts | 225° |
| 2026-04-28 22:12 | 38.03675 | 5.05766 | 36891 ft | 419 kts | 225° |
| 2026-04-28 22:13 | 37.99461 | 5.00652 | 36889 ft | 419 kts | 225° |
| 2026-04-28 22:13 | 37.95936 | 4.96354 | 36887 ft | 419 kts | 225° |
| 2026-04-28 22:14 | 37.91741 | 4.91245 | 36886 ft | 418 kts | 225° |
| 2026-04-28 22:14 | 37.87537 | 4.86134 | 36884 ft | 419 kts | 225° |
| 2026-04-28 22:15 | 37.83341 | 4.81041 | 36884 ft | 418 kts | 225° |
| 2026-04-28 22:15 | 37.79141 | 4.75950 | 36880 ft | 419 kts | 225° |
| 2026-04-28 22:16 | 37.74924 | 4.70848 | 36878 ft | 419 kts | 225° |
| 2026-04-28 22:16 | 37.70726 | 4.65778 | 36876 ft | 419 kts | 225° |
| 2026-04-28 22:17 | 37.66522 | 4.60709 | 36877 ft | 419 kts | 225° |
| 2026-04-28 22:17 | 37.62316 | 4.55646 | 36870 ft | 418 kts | 225° |
| 2026-04-28 22:18 | 37.58111 | 4.50591 | 36868 ft | 417 kts | 225° |
| 2026-04-28 22:18 | 37.53906 | 4.45545 | 36870 ft | 417 kts | 225° |
| 2026-04-28 22:19 | 37.49701 | 4.40508 | 36867 ft | 417 kts | 225° |
| 2026-04-28 22:19 | 37.45517 | 4.35504 | 36866 ft | 417 kts | 225° |
| 2026-04-28 22:20 | 37.41305 | 4.30474 | 36861 ft | 417 kts | 224° |
| 2026-04-28 22:20 | 37.37089 | 4.25447 | 36861 ft | 416 kts | 225° |
| 2026-04-28 22:21 | 37.32913 | 4.20477 | 36858 ft | 415 kts | 225° |
| 2026-04-28 22:21 | 37.28724 | 4.15500 | 36846 ft | 415 kts | 224° |
| 2026-04-28 22:22 | 37.24527 | 4.10520 | 36854 ft | 415 kts | 224° |
| 2026-04-28 22:22 | 37.20312 | 4.05528 | 36855 ft | 415 kts | 224° |
| 2026-04-28 22:23 | 37.16131 | 4.00583 | 36842 ft | 415 kts | 225° |
| 2026-04-28 22:23 | 37.11924 | 3.95615 | 36849 ft | 412 kts | 225° |
| 2026-04-28 22:24 | 37.07767 | 3.90710 | 36851 ft | 412 kts | 225° |
| 2026-04-28 22:24 | 37.03613 | 3.85745 | 36851 ft | 412 kts | 225° |
| 2026-04-28 22:25 | 36.99473 | 3.80805 | 36861 ft | 412 kts | 225° |
| 2026-04-28 22:25 | 36.95318 | 3.75856 | 36844 ft | 412 kts | 225° |
| 2026-04-28 22:26 | 36.91163 | 3.70914 | 36850 ft | 411 kts | 225° |
| 2026-04-28 22:26 | 36.87016 | 3.65990 | 36857 ft | 409 kts | 225° |
| 2026-04-28 22:27 | 36.82900 | 3.61110 | 36865 ft | 409 kts | 225° |
| 2026-04-28 22:27 | 36.79342 | 3.55676 | 36866 ft | 405 kts | 246° |
| 2026-04-28 22:28 | 36.77264 | 3.49156 | 36892 ft | 408 kts | 248° |
| 2026-04-28 22:28 | 36.75271 | 3.42535 | 36930 ft | 409 kts | 249° |
| 2026-04-28 22:29 | 36.73313 | 3.35885 | 36954 ft | 409 kts | 249° |
| 2026-04-28 22:29 | 36.71352 | 3.29203 | 36964 ft | 408 kts | 249° |
| 2026-04-28 22:30 | 36.69427 | 3.22583 | 36957 ft | 408 kts | 253° |
| 2026-04-28 22:30 | 36.68647 | 3.15568 | 36944 ft | 408 kts | 261° |
| 2026-04-28 22:31 | 36.68018 | 3.08559 | 36970 ft | 409 kts | 262° |
| 2026-04-28 22:31 | 36.67417 | 3.01533 | 36939 ft | 409 kts | 262° |
| 2026-04-28 22:32 | 36.66815 | 2.94484 | 36915 ft | 410 kts | 262° |
| 2026-04-28 22:32 | 36.66209 | 2.87422 | 36887 ft | 410 kts | 262° |
| 2026-04-28 22:33 | 36.65597 | 2.80357 | 36854 ft | 410 kts | 262° |
| 2026-04-28 22:33 | 36.64983 | 2.73305 | 36848 ft | 410 kts | 262° |
| 2026-04-28 22:34 | 36.64367 | 2.66272 | 36865 ft | 410 kts | 261° |
| 2026-04-28 22:34 | 36.63744 | 2.59219 | 36847 ft | 410 kts | 261° |
| 2026-04-28 22:35 | 36.63114 | 2.52136 | 36846 ft | 410 kts | 261° |
| 2026-04-28 22:35 | 36.62484 | 2.45093 | 36844 ft | 410 kts | 261° |
| 2026-04-28 22:36 | 36.61850 | 2.38060 | 36858 ft | 410 kts | 261° |
| 2026-04-28 22:36 | 36.61210 | 2.30999 | 36845 ft | 410 kts | 261° |
| 2026-04-28 22:37 | 36.60564 | 2.23912 | 36852 ft | 412 kts | 261° |
| 2026-04-28 22:37 | 36.59277 | 2.17063 | 36879 ft | 407 kts | 246° |
| 2026-04-28 22:38 | 36.57131 | 2.10493 | 36833 ft | 409 kts | 247° |
| 2026-04-28 22:38 | 36.54945 | 2.03946 | 36855 ft | 412 kts | 246° |
| 2026-04-28 22:39 | 36.52730 | 1.97398 | 36860 ft | 410 kts | 246° |
| 2026-04-28 22:39 | 36.50517 | 1.90880 | 36919 ft | 411 kts | 246° |
| 2026-04-28 22:40 | 36.48292 | 1.84339 | 36836 ft | 410 kts | 247° |
| 2026-04-28 22:40 | 36.46064 | 1.77806 | 36858 ft | 408 kts | 247° |
| 2026-04-28 22:41 | 36.43851 | 1.71330 | 36873 ft | 408 kts | 247° |
| 2026-04-28 22:41 | 36.41636 | 1.64863 | 36906 ft | 408 kts | 247° |
| 2026-04-28 22:42 | 36.39406 | 1.58366 | 36880 ft | 407 kts | 247° |
| 2026-04-28 22:42 | 36.37181 | 1.51893 | 36899 ft | 408 kts | 247° |
| 2026-04-28 22:43 | 36.35001 | 1.45392 | 36913 ft | 408 kts | 248° |
| 2026-04-28 22:43 | 36.32824 | 1.38902 | 36905 ft | 408 kts | 247° |
| 2026-04-28 22:44 | 36.30641 | 1.32407 | 36906 ft | 408 kts | 247° |
| 2026-04-28 22:44 | 36.28482 | 1.26001 | 36913 ft | 408 kts | 247° |
| 2026-04-28 22:45 | 36.26291 | 1.19512 | 36913 ft | 408 kts | 247° |
| 2026-04-28 22:45 | 36.24101 | 1.13039 | 36898 ft | 408 kts | 248° |
| 2026-04-28 22:46 | 36.21910 | 1.06581 | 36902 ft | 405 kts | 248° |
| 2026-04-28 22:46 | 36.19726 | 1.00155 | 36910 ft | 405 kts | 248° |
| 2026-04-28 22:47 | 36.17532 | 0.93713 | 36895 ft | 405 kts | 248° |
| 2026-04-28 22:47 | 36.15339 | 0.87287 | 36901 ft | 405 kts | 248° |
| 2026-04-28 22:48 | 36.13146 | 0.80877 | 36901 ft | 405 kts | 248° |
| 2026-04-28 22:48 | 36.10965 | 0.74511 | 36906 ft | 404 kts | 248° |
| 2026-04-28 22:49 | 36.08764 | 0.68106 | 36901 ft | 404 kts | 248° |
| 2026-04-28 22:49 | 36.06564 | 0.61714 | 36899 ft | 404 kts | 248° |
| 2026-04-28 22:50 | 36.04357 | 0.55316 | 36884 ft | 404 kts | 248° |
| 2026-04-28 22:50 | 36.02149 | 0.48929 | 36903 ft | 404 kts | 248° |
| 2026-04-28 22:51 | 35.99938 | 0.42545 | 36904 ft | 404 kts | 248° |
| 2026-04-28 22:51 | 35.97721 | 0.36158 | 36886 ft | 404 kts | 247° |
| 2026-04-28 22:52 | 35.95516 | 0.29818 | 36901 ft | 405 kts | 247° |
| 2026-04-28 22:52 | 35.93292 | 0.23435 | 36909 ft | 405 kts | 247° |
| 2026-04-28 22:53 | 35.91066 | 0.17056 | 36908 ft | 405 kts | 247° |
| 2026-04-28 22:53 | 35.88807 | 0.10691 | 36909 ft | 405 kts | 246° |
| 2026-04-28 22:54 | 35.86531 | 0.04330 | 36906 ft | 405 kts | 246° |
| 2026-04-28 22:54 | 35.84258 | -0.02015 | 36896 ft | 405 kts | 246° |
| 2026-04-28 22:55 | 35.81975 | -0.08377 | 36915 ft | 407 kts | 246° |
| 2026-04-28 22:55 | 35.79697 | -0.14712 | 36909 ft | 406 kts | 246° |
| 2026-04-28 22:56 | 35.77403 | -0.21078 | 36909 ft | 406 kts | 246° |
| 2026-04-28 22:56 | 35.75103 | -0.27448 | 36892 ft | 406 kts | 246° |
| 2026-04-28 22:57 | 35.72803 | -0.33805 | 36910 ft | 406 kts | 246° |
| 2026-04-28 22:57 | 35.70517 | -0.40110 | 36910 ft | 405 kts | 246° |
| 2026-04-28 22:58 | 35.68202 | -0.46482 | 36912 ft | 405 kts | 246° |
| 2026-04-28 22:58 | 35.65911 | -0.52776 | 36911 ft | 405 kts | 246° |
| 2026-04-28 22:59 | 35.63607 | -0.59093 | 36911 ft | 405 kts | 246° |
| 2026-04-28 22:59 | 35.61223 | -0.65367 | 36896 ft | 405 kts | 237° |
| 2026-04-28 23:00 | 35.57811 | -0.70882 | 36868 ft | 406 kts | 234° |
| 2026-04-28 23:00 | 35.54937 | -0.75462 | 36925 ft | 407 kts | 233° |
| 2026-04-28 23:01 | 35.51456 | -0.80946 | 36919 ft | 408 kts | 233° |
| 2026-04-28 23:01 | 35.47955 | -0.86444 | 36915 ft | 408 kts | 233° |
| 2026-04-28 23:02 | 35.44471 | -0.91906 | 36921 ft | 406 kts | 233° |
| 2026-04-28 23:02 | 35.40985 | -0.97362 | 36929 ft | 406 kts | 233° |
| 2026-04-28 23:03 | 35.37500 | -1.02809 | 36929 ft | 406 kts | 232° |
| 2026-04-28 23:03 | 35.34014 | -1.08249 | 36928 ft | 406 kts | 232° |
| 2026-04-28 23:04 | 35.30526 | -1.13683 | 36927 ft | 406 kts | 232° |
| 2026-04-28 23:04 | 35.25297 | -1.21813 | 36935 ft | 408 kts | 232° |
| 2026-04-28 23:05 | 35.21785 | -1.27262 | 36934 ft | 405 kts | 232° |
| 2026-04-28 23:05 | 35.18312 | -1.32644 | 36934 ft | 403 kts | 232° |
| 2026-04-28 23:06 | 35.14840 | -1.38016 | 36943 ft | 402 kts | 232° |
| 2026-04-28 23:06 | 35.11368 | -1.43379 | 36936 ft | 403 kts | 232° |
| 2026-04-28 23:07 | 35.07882 | -1.48755 | 36938 ft | 403 kts | 232° |
| 2026-04-28 23:07 | 35.04987 | -1.53215 | 36942 ft | 403 kts | 232° |